Time;durP1;ratioP1;P1;durP2;ratioP2;P2;SDS_P1;SDS_P2;PMS_P1;PMS_P2;Temp;Humidity;BMP_temperature;BMP_pressure;BME280_temperature;BME280_humidity;BME280_pressure;Samples;Min_cycle;Max_cycle;Signal;HPM_P1;HPM_P2
2022/09/27 00:00:16;;;;;;;;;3.50;1.00;;;;;12.31;69.97;100121.53;5058646;28;70612;-82
2022/09/27 00:02:41;;;;;;;;;2.00;1.00;;;;;12.33;69.91;100121.44;5058806;28;65147;-82
2022/09/27 00:05:07;;;;;;;;;3.00;0.00;;;;;12.32;70.09;100123.22;5076628;28;67877;-82
2022/09/27 00:07:32;;;;;;;;;0.00;0.00;;;;;12.29;69.65;100119.91;5077513;28;46191;-82
2022/09/27 00:09:58;;;;;;;;;0.00;0.00;;;;;12.26;69.37;100123.50;5058352;28;63682;-82
2022/09/27 00:12:23;;;;;;;;;0.00;0.00;;;;;12.23;69.25;100117.59;5059388;28;45496;-82
2022/09/27 00:14:48;;;;;;;;;2.00;0.00;;;;;12.21;69.60;100122.88;5059367;28;45431;-82
2022/09/27 00:17:14;;;;;;;;;0.00;0.00;;;;;12.18;69.80;100116.03;5059310;28;46164;-82
2022/09/27 00:19:39;;;;;;;;;4.00;1.00;;;;;12.18;69.70;100117.78;5076787;28;66638;-82
2022/09/27 00:22:05;;;;;;;;;1.75;1.00;;;;;12.17;69.88;100124.78;5059006;28;48593;-82
2022/09/27 00:24:30;;;;;;;;;3.00;0.00;;;;;12.19;69.69;100124.69;5077096;28;45471;-82
2022/09/27 00:26:56;;;;;;;;;0.00;0.00;;;;;12.19;70.14;100130.75;5077252;28;46181;-82
2022/09/27 00:29:21;;;;;;;;;2.75;1.00;;;;;12.23;70.31;100128.03;5059246;28;45388;-82
2022/09/27 00:31:46;;;;;;;;;2.25;1.00;;;;;12.27;69.95;100135.63;5059293;28;45643;-82
2022/09/27 00:34:22;;;;;;;;;1.00;1.00;;;;;12.26;69.72;100136.56;5091772;27;70358;-83
2022/09/27 00:36:48;;;;;;;;;6.25;1.50;;;;;12.25;70.49;100147.06;5097487;27;45448;-82
2022/09/27 00:39:14;;;;;;;;;3.00;1.25;;;;;12.22;70.70;100144.56;5061866;28;45426;-82
2022/09/27 00:41:41;;;;;;;;;3.25;1.00;;;;;12.23;70.42;100147.13;5038974;28;45357;-82
2022/09/27 00:44:28;;;;;;;;;3.00;1.00;;;;;12.19;71.04;100149.03;5056887;28;45465;-82
2022/09/27 00:47:29;;;;;;;;;1.00;1.00;;;;;12.17;71.20;100152.63;5056771;28;45534;-82
2022/09/27 00:49:57;;;;;;;;;2.75;2.00;;;;;12.13;71.21;100159.75;4939331;28;45407;-82
2022/09/27 00:52:26;;;;;;;;;2.50;1.25;;;;;12.08;71.65;100148.66;4955386;28;45425;-82
2022/09/27 00:54:55;;;;;;;;;2.00;2.00;;;;;12.08;71.53;100155.66;4923325;28;45515;-81
2022/09/27 00:57:22;;;;;;;;;2.00;1.00;;;;;12.06;71.40;100154.88;4939341;28;45546;-82
2022/09/27 00:59:51;;;;;;;;;5.00;1.00;;;;;12.03;71.14;100155.84;4955336;28;45595;-82
2022/09/27 01:02:17;;;;;;;;;2.25;1.00;;;;;12.05;71.62;100161.00;4938851;28;45435;-82
2022/09/27 01:04:43;;;;;;;;;0.50;0.50;;;;;12.08;71.47;100153.03;4955332;28;45399;-82
2022/09/27 01:07:09;;;;;;;;;1.00;1.00;;;;;12.10;71.80;100159.03;4954724;28;45501;-82
2022/09/27 01:09:34;;;;;;;;;2.75;1.50;;;;;12.07;71.91;100170.47;4955272;28;45553;-82
2022/09/27 01:12:28;;;;;;;;;2.25;1.00;;;;;12.08;71.92;100169.53;4947688;28;62370;-82
2022/09/27 01:15:07;;;;;;;;;1.00;1.00;;;;;12.07;71.89;100169.59;4958382;28;45484;-82
2022/09/27 01:17:42;;;;;;;;;2.00;1.00;;;;;12.02;72.22;100175.03;4958208;28;46495;-82
2022/09/27 01:20:43;;;;;;;;;3.00;2.00;;;;;12.01;72.44;100179.38;4958182;28;45428;-81
2022/09/27 01:23:33;;;;;;;;;3.50;0.25;;;;;11.99;72.02;100176.00;4974256;28;45299;-82
2022/09/27 01:26:32;;;;;;;;;2.00;1.00;;;;;11.95;72.36;100166.63;5007162;28;45673;-82
2022/09/27 01:29:14;;;;;;;;;1.50;0.75;;;;;11.92;71.92;100168.50;5055994;28;45431;-82
2022/09/27 01:31:54;;;;;;;;;1.50;1.50;;;;;11.90;72.31;100176.38;5055936;28;45723;-82
2022/09/27 01:34:25;;;;;;;;;1.25;1.25;;;;;11.92;72.32;100173.72;5071144;27;45398;-82
2022/09/27 01:37:01;;;;;;;;;2.25;1.00;;;;;11.95;72.24;100171.81;5078191;27;45371;-82
2022/09/27 01:39:52;;;;;;;;;1.50;0.75;;;;;11.95;72.10;100176.22;5066864;28;46190;-82
2022/09/27 01:42:26;;;;;;;;;1.00;1.00;;;;;11.91;72.22;100175.50;5037841;28;45573;-82
2022/09/27 01:45:04;;;;;;;;;1.00;1.00;;;;;11.87;72.12;100173.91;5038102;28;45381;-82
2022/09/27 01:47:57;;;;;;;;;1.00;1.00;;;;;11.87;72.57;100168.69;5037868;28;45369;-82
2022/09/27 01:50:30;;;;;;;;;1.25;1.00;;;;;11.88;72.02;100166.91;5027197;28;45526;-82
2022/09/27 01:53:00;;;;;;;;;1.00;0.25;;;;;11.84;72.12;100176.63;5037759;28;45419;-82
2022/09/27 01:55:31;;;;;;;;;1.00;1.00;;;;;11.84;71.94;100175.78;5037959;28;45312;-82
2022/09/27 01:58:03;;;;;;;;;1.00;1.00;;;;;11.87;72.35;100170.44;5037889;28;45516;-82
2022/09/27 02:00:29;;;;;;;;;1.00;1.00;;;;;11.87;71.81;100176.50;5055587;28;46599;-82
2022/09/27 02:02:58;;;;;;;;;1.00;1.00;;;;;11.86;72.09;100184.41;5036789;28;65417;-82
2022/09/27 02:05:29;;;;;;;;;2.00;1.00;;;;;11.83;71.79;100177.56;5037255;28;45396;-82
2022/09/27 02:07:59;;;;;;;;;0.00;0.00;;;;;11.80;72.18;100175.06;5037709;28;45386;-82
2022/09/27 02:10:30;;;;;;;;;0.00;0.00;;;;;11.76;72.06;100181.34;5020855;28;47413;-82
2022/09/27 02:13:22;;;;;;;;;5.25;0.00;;;;;11.76;72.54;100179.56;5036155;28;46017;-81
2022/09/27 02:16:10;;;;;;;;;0.25;0.25;;;;;11.73;72.58;100177.09;5061592;28;45364;-82
2022/09/27 02:18:51;;;;;;;;;0.00;0.00;;;;;11.73;72.30;100171.03;5078404;28;45417;-82
2022/09/27 02:21:17;;;;;;;;;1.75;0.25;;;;;11.72;72.21;100172.81;5078894;28;46568;-82
2022/09/27 02:23:46;;;;;;;;;2.00;0.00;;;;;11.72;72.04;100166.72;5076892;28;72243;-82
2022/09/27 02:26:28;;;;;;;;;3.00;0.00;;;;;11.73;71.96;100168.44;5061207;28;45490;-82
2022/09/27 02:29:01;;;;;;;;;1.50;1.00;;;;;11.71;71.78;100165.88;5079173;28;45369;-82
2022/09/27 02:31:26;;;;;;;;;0.50;0.00;;;;;11.72;72.30;100167.59;5061018;28;47247;-81
2022/09/27 02:33:57;;;;;;;;;0.00;0.00;;;;;11.71;71.87;100162.44;5056673;27;45574;-82
2022/09/27 02:36:22;;;;;;;;;0.00;0.00;;;;;11.67;72.60;100166.94;5081475;27;45444;-82
2022/09/27 02:38:48;;;;;;;;;0.75;0.00;;;;;11.66;72.10;100167.81;5081282;27;45379;-82
2022/09/27 02:41:19;;;;;;;;;0.00;0.00;;;;;11.69;72.58;100169.47;5060347;28;65764;-82
2022/09/27 02:43:47;;;;;;;;;0.00;0.00;;;;;11.73;72.04;100166.66;5040692;28;45610;-82
2022/09/27 02:46:31;;;;;;;;;0.00;0.00;;;;;11.74;72.23;100165.75;5040932;28;45329;-82
2022/09/27 02:49:34;;;;;;;;;0.00;0.00;;;;;11.75;72.26;100167.44;5058380;28;45344;-81
2022/09/27 02:52:27;;;;;;;;;1.00;0.50;;;;;11.76;72.48;100163.09;5058219;28;46374;-81
2022/09/27 02:55:08;;;;;;;;;2.25;0.00;;;;;11.76;72.30;100163.09;5058509;28;45469;-82
2022/09/27 02:57:51;;;;;;;;;2.00;0.00;;;;;11.81;72.52;100164.59;5040655;28;45436;-82
2022/09/27 03:00:20;;;;;;;;;1.00;0.00;;;;;11.82;73.33;100162.81;5058551;28;45475;-82
2022/09/27 03:02:52;;;;;;;;;0.00;0.00;;;;;11.84;72.95;100174.03;5040279;28;45498;-82
2022/09/27 03:05:30;;;;;;;;;0.00;0.00;;;;;11.87;72.46;100173.03;5023047;28;45397;-82
2022/09/27 03:07:55;;;;;;;;;0.00;0.00;;;;;11.91;72.93;100166.81;5023811;28;45358;-82
2022/09/27 03:10:23;;;;;;;;;0.00;0.00;;;;;11.93;72.56;100181.47;5040258;28;45420;-82
2022/09/27 03:12:49;;;;;;;;;1.00;0.00;;;;;11.97;73.40;100174.38;5066918;28;45357;-82
2022/09/27 03:15:15;;;;;;;;;1.00;0.25;;;;;11.97;74.84;100175.22;5060235;28;45487;-83
2022/09/27 03:17:40;;;;;;;;;0.00;0.00;;;;;11.95;74.31;100169.22;5059988;28;45313;-83
2022/09/27 03:20:06;;;;;;;;;0.00;0.00;;;;;11.93;74.52;100171.06;5077279;28;45563;-83
2022/09/27 03:22:32;;;;;;;;;0.00;0.00;;;;;11.93;74.79;100171.06;5060193;28;46204;-83
2022/09/27 03:24:57;;;;;;;;;1.50;0.00;;;;;11.91;75.00;100172.03;5059960;28;45447;-83
2022/09/27 03:27:23;;;;;;;;;0.00;0.00;;;;;11.88;75.52;100165.16;5060469;28;45434;-83
2022/09/27 03:29:48;;;;;;;;;2.00;0.50;;;;;11.89;75.59;100164.25;5043233;28;45320;-83
2022/09/27 03:32:14;;;;;;;;;0.25;0.25;;;;;11.91;75.19;100172.03;5077069;28;64735;-83
2022/09/27 03:34:39;;;;;;;;;2.00;1.00;;;;;11.87;75.59;100167.81;5097723;27;45234;-83
2022/09/27 03:37:04;;;;;;;;;0.25;0.00;;;;;11.84;75.53;100170.56;5097996;27;61484;-83
2022/09/27 03:39:30;;;;;;;;;1.00;1.00;;;;;11.85;75.75;100169.66;5098561;27;45202;-83
2022/09/27 03:41:56;;;;;;;;;3.00;0.00;;;;;11.83;76.27;100164.53;5082007;27;61516;-83
2022/09/27 03:44:21;;;;;;;;;0.25;0.00;;;;;11.84;75.21;100165.38;5078241;28;45384;-83
2022/09/27 03:46:46;;;;;;;;;2.00;1.00;;;;;11.85;75.58;100167.03;5059732;28;45397;-83
2022/09/27 03:49:15;;;;;;;;;0.25;0.00;;;;;11.86;75.80;100166.13;5059472;28;54577;-82
2022/09/27 03:51:41;;;;;;;;;0.75;0.00;;;;;11.84;75.71;100157.53;5077033;28;71041;-83
2022/09/27 03:54:06;;;;;;;;;2.00;0.75;;;;;11.83;75.70;100161.91;5076484;28;45554;-82
2022/09/27 03:56:32;;;;;;;;;0.50;0.50;;;;;11.81;75.32;100156.75;5078057;28;45383;-83
2022/09/27 03:58:57;;;;;;;;;0.25;0.25;;;;;11.81;75.53;100155.88;5042048;28;68740;-82
2022/09/27 04:01:24;;;;;;;;;1.00;1.00;;;;;11.79;75.12;100153.38;5077153;28;46349;-83
2022/09/27 04:03:50;;;;;;;;;1.75;0.50;;;;;11.80;75.68;100162.03;5077593;28;45430;-83
2022/09/27 04:06:16;;;;;;;;;1.00;0.00;;;;;11.81;75.38;100158.50;5077613;28;45472;-83
2022/09/27 04:08:42;;;;;;;;;1.25;0.00;;;;;11.80;75.74;100162.88;5077665;28;45500;-83
2022/09/27 04:11:07;;;;;;;;;1.00;1.00;;;;;11.77;75.24;100162.16;5077559;28;45513;-82
2022/09/27 04:13:32;;;;;;;;;0.50;0.00;;;;;11.75;75.38;100154.41;5058441;28;67105;-82
2022/09/27 04:15:58;;;;;;;;;0.25;0.25;;;;;11.74;75.18;100144.06;5075087;28;65085;-82
2022/09/27 04:18:23;;;;;;;;;0.00;0.00;;;;;11.72;75.33;100146.72;5077675;28;45325;-82
2022/09/27 04:20:48;;;;;;;;;2.00;0.00;;;;;11.70;75.59;100139.88;5058602;28;65770;-82
2022/09/27 04:23:14;;;;;;;;;1.00;1.00;;;;;11.71;75.69;100141.56;5058252;28;70537;-82
2022/09/27 04:25:39;;;;;;;;;0.00;0.00;;;;;11.70;75.67;100140.75;5077189;28;47673;-83
2022/09/27 04:28:05;;;;;;;;;2.75;0.00;;;;;11.71;75.28;100141.56;5077299;28;45270;-83
2022/09/27 04:30:30;;;;;;;;;0.25;0.25;;;;;11.72;75.10;100136.28;5058684;28;47368;-83
2022/09/27 04:32:56;;;;;;;;;2.00;0.00;;;;;11.69;75.52;100132.97;5063066;27;67742;-83
2022/09/27 04:38:05;;;;;;;;;0.00;0.00;;;;;11.68;75.93;100134.75;5096860;27;45386;-83
2022/09/27 04:40:34;;;;;;;;;1.00;0.75;;;;;11.69;75.41;100133.81;5097481;27;45473;-82
2022/09/27 04:42:59;;;;;;;;;1.00;1.00;;;;;11.72;75.89;100131.09;5080196;27;45372;-82
2022/09/27 04:45:24;;;;;;;;;0.00;0.00;;;;;11.72;75.46;100131.09;5058967;28;45344;-81
2022/09/27 04:47:50;;;;;;;;;0.00;0.00;;;;;11.71;75.69;100134.59;5059141;28;45449;-87
2022/09/27 04:50:17;;;;;;;;;2.00;0.00;;;;;11.72;75.90;100133.69;5058709;28;45490;-89
2022/09/27 04:52:42;;;;;;;;;0.00;0.00;;;;;11.74;75.81;100136.25;5075728;28;46054;-89
2022/09/27 04:55:09;;;;;;;;;0.00;0.00;;;;;11.76;75.61;100134.41;5075959;28;45360;-88
2022/09/27 04:57:35;;;;;;;;;0.00;0.00;;;;;11.78;75.68;100140.41;5076886;28;45352;-88
2022/09/27 05:00:00;;;;;;;;;0.25;0.25;;;;;11.82;76.05;100155.84;5058334;28;46509;-89
2022/09/27 05:02:27;;;;;;;;;1.00;0.00;;;;;11.85;76.22;100165.31;5058479;28;46164;-89
2022/09/27 05:04:56;;;;;;;;;0.75;0.75;;;;;11.93;75.74;100167.59;5058526;28;45418;-88
2022/09/27 05:07:22;;;;;;;;;2.75;0.00;;;;;11.94;76.52;100164.06;5059213;28;45404;-87
2022/09/27 05:09:47;;;;;;;;;0.00;0.00;;;;;11.93;76.82;100151.97;5075294;28;47085;-88
2022/09/27 05:12:13;;;;;;;;;1.00;0.00;;;;;11.91;76.60;100141.59;5076631;28;45375;-90
2022/09/27 05:14:38;;;;;;;;;0.00;0.00;;;;;11.85;77.07;100140.97;5058434;28;59018;-92
2022/09/27 05:17:06;;;;;;;;;0.75;0.75;;;;;11.76;76.86;100130.03;5042216;28;57201;-90
2022/09/27 05:19:32;;;;;;;;;0.00;0.00;;;;;11.73;77.54;100137.97;5075939;28;45489;-89
2022/09/27 05:21:57;;;;;;;;;0.75;0.00;;;;;11.67;77.97;100143.47;5075545;28;45519;-87
2022/09/27 05:24:23;;;;;;;;;0.00;0.00;;;;;11.64;77.49;100133.16;5058733;28;45351;-86
2022/09/27 05:26:48;;;;;;;;;1.25;1.00;;;;;11.59;77.52;100142.97;5058597;28;45357;-87
2022/09/27 05:29:14;;;;;;;;;0.00;0.00;;;;;11.55;77.49;100144.84;5057991;28;48964;-87
2022/09/27 05:31:39;;;;;;;;;1.00;1.00;;;;;11.50;77.79;100157.22;5058549;28;45472;-87
2022/09/27 05:34:07;;;;;;;;;3.00;0.25;;;;;11.48;78.28;100158.16;5090757;27;60224;-91
2022/09/27 05:36:33;;;;;;;;;1.00;1.00;;;;;11.47;78.01;100167.75;5098635;27;45529;-87
2022/09/27 05:38:58;;;;;;;;;1.00;1.00;;;;;11.45;78.23;100168.75;5078915;27;45866;-87
2022/09/27 05:41:24;;;;;;;;;1.75;0.00;;;;;11.44;77.95;100147.06;5078565;27;45388;-87
2022/09/27 05:43:51;;;;;;;;;2.00;0.00;;;;;11.46;77.90;100150.44;5055717;28;45460;-87
2022/09/27 05:46:16;;;;;;;;;0.00;0.00;;;;;11.47;77.63;100146.91;5038519;28;45359;-86
2022/09/27 05:48:42;;;;;;;;;1.00;0.75;;;;;11.50;78.03;100146.78;5055799;28;46474;-87
2022/09/27 05:51:07;;;;;;;;;2.25;2.00;;;;;11.55;77.95;100133.53;5054882;28;45376;-90
2022/09/27 05:53:33;;;;;;;;;1.00;1.00;;;;;11.58;78.44;100129.06;5021708;28;45334;-89
2022/09/27 05:56:04;;;;;;;;;0.00;0.00;;;;;11.62;78.03;100135.00;5056756;28;45342;-89
2022/09/27 05:58:30;;;;;;;;;2.00;1.00;;;;;11.63;77.84;100132.31;5037866;28;47108;-89
2022/09/27 06:00:56;;;;;;;;;1.50;0.00;;;;;11.66;78.02;100120.91;5038600;28;45512;-90
2022/09/27 06:03:21;;;;;;;;;1.00;1.00;;;;;11.67;77.57;100132.19;5056194;28;45608;-90
2022/09/27 06:05:47;;;;;;;;;1.50;1.50;;;;;11.68;77.54;100133.88;5037985;28;45302;-90
2022/09/27 06:08:12;;;;;;;;;0.50;0.50;;;;;11.71;77.69;100141.56;5037758;28;48322;-89
2022/09/27 06:10:39;;;;;;;;;0.00;0.00;;;;;11.73;77.30;100137.97;5021234;28;45635;-89
2022/09/27 06:13:07;;;;;;;;;1.25;1.00;;;;;11.76;77.16;100143.06;5055359;28;45325;-88
2022/09/27 06:15:34;;;;;;;;;1.00;0.00;;;;;11.80;77.49;100136.81;5049612;28;45331;-88
2022/09/27 06:18:09;;;;;;;;;1.00;1.00;;;;;11.82;76.94;100148.00;5058868;28;45385;-91
2022/09/27 06:20:35;;;;;;;;;0.50;0.00;;;;;11.84;77.35;100144.50;5076076;28;45266;-89
2022/09/27 06:23:16;;;;;;;;;2.50;0.00;;;;;11.84;77.08;100147.94;5040960;28;45421;-89
2022/09/27 06:25:42;;;;;;;;;3.75;0.25;;;;;11.87;77.39;100150.44;5076019;28;45281;-89
2022/09/27 06:28:08;;;;;;;;;1.75;1.00;;;;;11.92;76.73;100150.25;5057436;28;45895;-89
2022/09/27 06:30:38;;;;;;;;;0.75;0.25;;;;;11.95;77.49;100150.97;5075497;28;45698;-86
2022/09/27 06:33:03;;;;;;;;;0.00;0.00;;;;;11.99;76.58;100149.91;5081617;27;45352;-87
2022/09/27 06:35:29;;;;;;;;;1.75;1.50;;;;;12.05;76.71;100148.78;5061117;27;45271;-87
2022/09/27 06:37:55;;;;;;;;;1.00;1.00;;;;;12.10;76.52;100152.03;5078106;27;46610;-89
2022/09/27 06:40:23;;;;;;;;;1.00;1.00;;;;;12.12;76.29;100151.97;5078902;27;45270;-91
2022/09/27 06:42:49;;;;;;;;;1.50;0.00;;;;;12.15;76.85;100142.25;5096891;27;45337;-91
2022/09/27 06:45:15;;;;;;;;;4.00;1.00;;;;;12.16;76.34;100137.88;5056411;28;45314;-88
2022/09/27 06:47:40;;;;;;;;;3.25;2.00;;;;;12.17;76.30;100137.81;5037920;28;48125;-90
2022/09/27 06:50:06;;;;;;;;;1.75;1.75;;;;;12.21;76.33;100135.91;5037608;28;45469;-88
2022/09/27 06:52:33;;;;;;;;;0.25;0.00;;;;;12.23;76.06;100143.69;5021161;28;45353;-88
2022/09/27 06:54:59;;;;;;;;;1.00;1.00;;;;;12.27;76.16;100142.63;5054905;28;45328;-86
2022/09/27 07:00:25;;;;;;;;;2.00;2.00;;;;;12.30;76.00;100153.75;5040966;28;45421;-87
2022/09/27 07:02:51;;;;;;;;;4.00;1.00;;;;;12.34;75.62;100149.25;5059323;28;45336;-86
2022/09/27 07:05:19;;;;;;;;;1.00;1.00;;;;;12.37;75.29;100160.41;5040053;28;45463;-84
2022/09/27 07:07:46;;;;;;;;;3.00;1.75;;;;;12.39;74.88;100155.97;5040532;28;45427;-83
2022/09/27 07:10:11;;;;;;;;;2.00;1.00;;;;;12.47;75.29;100158.22;5039668;28;45412;-84
2022/09/27 07:12:37;;;;;;;;;1.00;0.75;;;;;12.50;74.88;100165.91;5040234;28;45400;-84
2022/09/27 07:15:03;;;;;;;;;1.00;1.00;;;;;12.57;74.94;100174.28;5060934;28;45434;-84
2022/09/27 07:17:29;;;;;;;;;0.00;0.00;;;;;12.65;75.31;100181.75;5078164;28;46467;-85
2022/09/27 07:19:57;;;;;;;;;1.75;1.75;;;;;12.73;74.38;100183.09;5059628;28;63255;-85
2022/09/27 07:22:22;;;;;;;;;2.75;1.00;;;;;12.78;74.28;100177.69;5078349;28;45618;-85
2022/09/27 07:24:47;;;;;;;;;2.50;1.00;;;;;12.81;74.02;100181.91;5077866;28;45532;-81
2022/09/27 07:27:14;;;;;;;;;3.50;1.00;;;;;12.87;74.39;100192.94;5077282;28;73283;-84
2022/09/27 07:29:39;;;;;;;;;1.00;1.00;;;;;12.95;73.99;100196.00;5060063;28;45765;-84
2022/09/27 07:32:04;;;;;;;;;0.00;0.00;;;;;13.01;73.22;100186.19;5078113;28;45386;-84
2022/09/27 07:34:32;;;;;;;;;0.00;0.00;;;;;13.05;73.61;100200.78;5077948;27;49276;-85
2022/09/27 07:37:04;;;;;;;;;1.50;1.00;;;;;13.12;73.48;100192.59;5066774;28;45565;-90
2022/09/27 07:39:33;;;;;;;;;3.00;1.25;;;;;13.24;73.83;100195.53;5049325;28;45615;-91
2022/09/27 07:42:05;;;;;;;;;0.75;0.75;;;;;13.28;72.42;100199.69;5076320;28;45444;-89
2022/09/27 07:44:33;;;;;;;;;0.00;0.00;;;;;13.33;72.46;100193.38;5051507;28;45547;-90
2022/09/27 07:46:58;;;;;;;;;1.00;1.00;;;;;13.32;72.46;100193.44;5053396;28;45634;-89
2022/09/27 07:49:24;;;;;;;;;1.00;0.50;;;;;13.35;72.05;100201.97;5055799;28;46482;-88
2022/09/27 07:51:50;;;;;;;;;2.00;0.00;;;;;13.37;72.09;100209.72;5076720;28;45365;-85
2022/09/27 07:54:18;;;;;;;;;1.50;0.00;;;;;13.41;72.22;100210.41;5075989;28;45526;-88
2022/09/27 07:56:44;;;;;;;;;1.00;1.00;;;;;13.50;71.91;100215.19;5057678;28;46260;-87
2022/09/27 07:59:12;;;;;;;;;1.75;1.00;;;;;13.58;72.12;100218.28;5074538;28;45665;-87
2022/09/27 08:01:38;;;;;;;;;1.00;1.00;;;;;13.67;72.06;100222.19;5076181;28;45401;-87
2022/09/27 08:04:04;;;;;;;;;0.00;0.00;;;;;13.69;71.09;100221.22;5058358;28;45687;-86
2022/09/27 08:06:29;;;;;;;;;2.00;0.00;;;;;13.70;71.13;100233.34;5056474;28;45459;-89
2022/09/27 08:08:56;;;;;;;;;1.00;1.00;;;;;13.66;70.88;100230.97;5074089;28;45950;-87
2022/09/27 08:11:21;;;;;;;;;1.00;1.00;;;;;13.64;70.55;100233.66;5056934;28;45404;-87
2022/09/27 08:13:48;;;;;;;;;1.00;1.00;;;;;13.63;70.78;100224.16;5075974;28;45462;-86
2022/09/27 08:16:14;;;;;;;;;0.50;0.25;;;;;13.63;70.76;100228.50;5054083;28;45672;-86
2022/09/27 08:18:39;;;;;;;;;0.75;0.00;;;;;13.69;71.34;100228.22;5036509;28;64999;-88
2022/09/27 08:21:05;;;;;;;;;1.00;1.00;;;;;13.79;71.14;100228.59;5020421;28;57826;-88
2022/09/27 08:23:30;;;;;;;;;2.25;1.00;;;;;13.88;70.91;100230.75;5037274;28;45603;-88
2022/09/27 08:25:58;;;;;;;;;1.00;1.00;;;;;14.03;70.77;100234.34;5037605;28;47110;-88
2022/09/27 08:28:26;;;;;;;;;1.25;1.00;;;;;14.12;69.66;100226.88;5020679;28;46200;-88
2022/09/27 08:30:53;;;;;;;;;1.00;1.00;;;;;14.14;69.19;100232.88;5037624;28;45425;-88
2022/09/27 08:33:24;;;;;;;;;2.00;0.50;;;;;14.19;69.57;100248.34;5037251;27;45728;-88
2022/09/27 08:35:52;;;;;;;;;3.00;1.50;;;;;14.27;69.33;100240.94;5077739;27;46334;-88
2022/09/27 08:38:18;;;;;;;;;1.00;1.00;;;;;14.39;69.18;100242.03;5095600;27;45423;-87
2022/09/27 08:40:55;;;;;;;;;3.00;1.00;;;;;14.53;69.50;100243.94;5095458;27;58743;-88
2022/09/27 08:43:36;;;;;;;;;0.25;0.25;;;;;14.59;69.08;100250.66;5095238;27;45568;-88
2022/09/27 08:46:34;;;;;;;;;2.00;1.00;;;;;14.55;68.80;100249.94;5066476;28;46320;-87
2022/09/27 08:49:13;;;;;;;;;1.25;0.75;;;;;14.49;68.66;100252.91;5074393;28;45387;-88
2022/09/27 08:51:40;;;;;;;;;0.00;0.00;;;;;14.39;69.05;100246.44;5056997;28;45559;-87
2022/09/27 08:54:33;;;;;;;;;;;;;;;;;;;;;
2022/09/27 08:57:18;;;;;;;;;0.00;0.00;;;;;14.19;69.82;100223.91;5069656;28;75627;-91
2022/09/27 08:59:49;;;;;;;;;1.00;1.00;;;;;14.08;69.77;100230.56;5058831;28;45726;-87
2022/09/27 09:02:20;;;;;;;;;0.75;0.75;;;;;14.06;70.10;100229.81;5074473;28;45511;-88
2022/09/27 09:04:49;;;;;;;;;1.50;1.00;;;;;14.06;69.57;100249.88;5057298;28;45678;-85
2022/09/27 09:07:34;;;;;;;;;0.00;0.00;;;;;14.00;70.12;100263.28;5074517;28;46335;-85
2022/09/27 09:13:35;;;;;;;;;1.00;1.00;;;;;14.05;70.83;100256.06;5059605;28;45378;-86
2022/09/27 09:16:07;;;;;;;;;0.00;0.00;;;;;14.12;71.31;100271.34;5056818;28;45362;-84
2022/09/27 09:19:12;;;;;;;;;1.50;1.00;;;;;14.20;71.14;100259.66;5074497;28;46410;-85
2022/09/27 09:22:02;;;;;;;;;2.50;1.00;;;;;14.27;70.85;100247.94;5074667;28;45499;-85
2022/09/27 09:24:43;;;;;;;;;0.75;0.75;;;;;14.42;69.86;100248.91;5056825;28;45456;-86
2022/09/27 09:27:21;;;;;;;;;1.00;0.00;;;;;14.53;68.93;100233.47;5056721;28;45531;-87
2022/09/27 09:30:17;;;;;;;;;0.00;0.00;;;;;14.62;69.03;100234.78;5075089;28;46291;-85
2022/09/27 09:32:57;;;;;;;;;0.00;0.00;;;;;14.64;68.71;100232.94;5077263;27;46300;-86
2022/09/27 09:35:27;;;;;;;;;0.00;0.00;;;;;14.69;69.62;100225.66;5076502;27;45386;-85
2022/09/27 09:37:56;;;;;;;;;2.75;1.00;;;;;14.74;67.87;100202.69;5077320;27;45412;-85
2022/09/27 09:40:42;;;;;;;;;0.00;0.00;;;;;14.87;68.51;100211.53;5076769;27;47694;-86
2022/09/27 09:43:36;;;;;;;;;2.00;0.00;;;;;14.96;66.43;100215.44;5076826;27;45815;-85
2022/09/27 09:46:12;;;;;;;;;1.00;0.00;;;;;15.06;66.28;100215.78;5092998;27;45426;-85
2022/09/27 09:48:45;;;;;;;;;4.00;1.00;;;;;15.36;66.25;100209.72;5056318;28;45456;-85
2022/09/27 09:51:21;;;;;;;;;1.00;1.00;;;;;15.59;64.12;100211.03;5074252;28;46619;-85
2022/09/27 09:54:22;;;;;;;;;0.00;0.00;;;;;15.72;60.75;100204.13;5056829;28;45902;-84
2022/09/27 09:56:52;;;;;;;;;1.00;0.00;;;;;15.81;61.65;100202.78;5039453;28;45318;-85
2022/09/27 09:59:23;;;;;;;;;1.50;0.00;;;;;15.85;61.72;100202.50;5056603;28;45591;-85
2022/09/27 10:01:49;;;;;;;;;2.75;1.00;;;;;15.87;61.21;100191.91;5056049;28;45454;-85
2022/09/27 10:04:21;;;;;;;;;2.00;0.50;;;;;15.94;61.91;100193.25;5055803;28;45452;-86
2022/09/27 10:06:47;;;;;;;;;0.75;0.75;;;;;16.06;61.56;100189.03;5055925;28;45405;-86
2022/09/27 10:09:17;;;;;;;;;0.00;0.00;;;;;16.19;58.81;100189.97;5056426;28;45512;-86
2022/09/27 10:11:44;;;;;;;;;0.50;0.00;;;;;16.19;56.78;100179.44;5056047;28;45496;-85
2022/09/27 10:14:11;;;;;;;;;2.00;0.00;;;;;16.29;57.31;100174.50;5073185;28;45522;-86
2022/09/27 10:16:41;;;;;;;;;0.00;0.00;;;;;16.43;55.92;100179.72;5056109;28;45526;-85
2022/09/27 10:19:07;;;;;;;;;0.00;0.00;;;;;16.50;57.34;100174.94;5056107;28;45484;-86
2022/09/27 10:21:32;;;;;;;;;0.00;0.00;;;;;16.55;54.52;100191.28;5039238;28;48059;-86
2022/09/27 10:24:03;;;;;;;;;0.75;0.00;;;;;16.52;56.04;100178.31;5072954;28;45383;-87
2022/09/27 10:26:29;;;;;;;;;1.25;0.00;;;;;16.50;56.07;100174.09;5070885;28;45502;-86
2022/09/27 10:28:54;;;;;;;;;0.00;0.00;;;;;16.45;56.64;100180.50;5062817;28;45520;-86
2022/09/27 10:31:21;;;;;;;;;0.00;0.00;;;;;16.35;54.48;100181.16;5071278;28;67547;-85
2022/09/27 10:34:00;;;;;;;;;1.75;0.00;;;;;16.22;56.38;100183.69;5071532;28;45593;-87
2022/09/27 10:36:28;;;;;;;;;0.00;0.00;;;;;16.18;56.66;100183.03;5058189;28;45683;-86
2022/09/27 10:38:59;;;;;;;;;0.00;0.00;;;;;16.11;55.48;100202.72;5076152;28;45932;-86
2022/09/27 10:41:30;;;;;;;;;1.50;0.00;;;;;15.97;57.80;100195.69;5076765;28;47275;-86
2022/09/27 10:43:56;;;;;;;;;1.00;0.00;;;;;15.81;57.50;100200.16;5075426;28;45816;-85
2022/09/27 10:46:26;;;;;;;;;1.00;0.00;;;;;15.63;58.74;100191.56;5075583;28;45451;-85
2022/09/27 10:49:17;;;;;;;;;1.00;0.75;;;;;15.47;59.37;100183.72;5058093;28;45415;-86
2022/09/27 10:51:44;;;;;;;;;0.00;0.00;;;;;15.33;61.56;100187.16;5043453;28;45522;-86
2022/09/27 10:54:18;;;;;;;;;1.75;1.00;;;;;15.19;62.22;100189.72;5037809;28;74256;-87
2022/09/27 10:56:44;;;;;;;;;3.00;1.00;;;;;15.11;65.11;100190.16;5026039;28;45422;-86
2022/09/27 10:59:17;;;;;;;;;1.50;0.00;;;;;15.15;66.31;100193.44;5076349;28;60175;-86
2022/09/27 11:01:44;;;;;;;;;0.00;0.00;;;;;15.17;65.72;100184.56;5057368;28;69703;-88
2022/09/27 11:04:20;;;;;;;;;0.00;0.00;;;;;15.19;65.12;100184.47;5058833;28;45778;-85
2022/09/27 11:06:45;;;;;;;;;0.25;0.00;;;;;15.17;65.59;100181.09;5076763;28;45381;-86
2022/09/27 11:09:25;;;;;;;;;0.00;0.00;;;;;15.13;65.19;100185.66;5054985;28;52515;-86
2022/09/27 11:12:05;;;;;;;;;2.00;0.00;;;;;15.10;65.59;100184.06;5059519;28;46500;-86
2022/09/27 11:14:31;;;;;;;;;0.00;0.00;;;;;15.12;65.44;100186.63;5076999;28;45435;-86
2022/09/27 11:17:12;;;;;;;;;0.00;0.00;;;;;15.09;65.27;100177.13;5059872;28;45424;-85
2022/09/27 11:19:59;;;;;;;;;1.00;1.00;;;;;15.09;65.93;100182.38;5066877;28;45507;-86
2022/09/27 11:22:42;;;;;;;;;0.50;0.00;;;;;15.05;66.42;100186.09;5063805;28;48277;-86
2022/09/27 11:25:46;;;;;;;;;1.00;1.00;;;;;15.00;66.79;100179.44;5075561;28;45679;-86
2022/09/27 11:28:36;;;;;;;;;1.00;1.00;;;;;14.98;66.57;100176.88;5084296;28;45484;-87
2022/09/27 11:31:02;;;;;;;;;0.50;0.00;;;;;14.95;65.74;100169.22;5056005;28;45495;-86
2022/09/27 11:33:53;;;;;;;;;1.00;1.00;;;;;14.84;66.08;100169.81;5074044;28;46317;-87
2022/09/27 11:36:33;;;;;;;;;0.00;0.00;;;;;14.84;67.04;100180.28;5046387;28;45475;-88
2022/09/27 11:39:19;;;;;;;;;1.00;1.00;;;;;15.06;66.52;100171.22;5072333;28;45447;-86
2022/09/27 11:41:54;;;;;;;;;1.00;1.00;;;;;15.50;66.13;100178.31;5072079;28;45531;-87
2022/09/27 11:44:35;;;;;;;;;1.25;1.25;;;;;16.74;64.92;100176.97;5074089;28;46169;-90
2022/09/27 11:47:03;;;;;;;;;2.50;1.50;;;;;17.27;61.11;100169.19;5056496;28;46007;-88
2022/09/27 11:49:41;;;;;;;;;3.00;1.00;;;;;18.73;60.80;100167.91;5066319;28;45567;-89
2022/09/27 11:52:16;;;;;;;;;2.25;1.00;;;;;21.63;58.47;100162.16;5057205;28;45420;-91